Central Virginia Flyers


Central Virginia Flyers is a 10 member flying club based in Richmond, VA at Hanover County Airport (KOFP). We own N787AT, a 1977 Cessna 172 with 180hp conversion. If you are interested in membership, please contact Brenton at [email protected]


Aviation Digital Data Service (ADDS)

Output produced by METARs form (0823 UTC 20 November 2018)
found at http://aviationweather.gov/metar/data/
 
KOFP 200754Z AUTO 18003KT 6SM BR CLR 09/08 A2991 RMK AO2 SLP128 T00890078
KRIC 200807Z 21004KT 2SM BR FEW003 FEW100 08/07 A2990 RMK AO2 T00830072
KRIC 200807Z 2008/2106 19005KT 2SM BR SCT004 BKN080 
     TEMPO 2008/2010 BKN004 
     FM201000 24004KT 5SM BR BKN080 
     FM201300 29008KT P6SM BKN060 
     FM201700 30010G18KT P6SM SCT070 
     FM202200 32008KT P6SM SKC